sensor_id;sensor_type;location;lat;lon;timestamp;P1;durP1;ratioP1;P2;durP2;ratioP2
42134;SDS011;28312;43.460;11.810;2022-10-13T00:01:37;3.25;;;1.77;;
42134;SDS011;28312;43.460;11.810;2022-10-13T00:05:42;2.38;;;1.35;;
42134;SDS011;28312;43.460;11.810;2022-10-13T00:09:50;2.65;;;1.90;;
42134;SDS011;28312;43.460;11.810;2022-10-13T00:13:56;2.60;;;1.67;;
42134;SDS011;28312;43.460;11.810;2022-10-13T00:18:03;3.10;;;1.52;;
42134;SDS011;28312;43.460;11.810;2022-10-13T00:22:10;2.28;;;1.50;;
42134;SDS011;28312;43.460;11.810;2022-10-13T00:26:15;4.43;;;1.50;;
42134;SDS011;28312;43.460;11.810;2022-10-13T00:30:21;2.13;;;1.23;;
42134;SDS011;28312;43.460;11.810;2022-10-13T00:34:25;2.50;;;1.55;;
42134;SDS011;28312;43.460;11.810;2022-10-13T00:38:29;2.63;;;1.60;;
42134;SDS011;28312;43.460;11.810;2022-10-13T00:42:32;2.90;;;2.00;;
42134;SDS011;28312;43.460;11.810;2022-10-13T00:46:40;2.45;;;1.55;;
42134;SDS011;28312;43.460;11.810;2022-10-13T00:50:43;3.42;;;1.98;;
42134;SDS011;28312;43.460;11.810;2022-10-13T00:54:48;3.22;;;1.95;;
42134;SDS011;28312;43.460;11.810;2022-10-13T00:58:55;2.55;;;1.70;;
42134;SDS011;28312;43.460;11.810;2022-10-13T01:03:02;2.80;;;1.70;;
42134;SDS011;28312;43.460;11.810;2022-10-13T01:07:05;2.00;;;1.30;;
42134;SDS011;28312;43.460;11.810;2022-10-13T01:20:12;4.45;;;2.90;;
42134;SDS011;28312;43.460;11.810;2022-10-13T01:24:40;3.10;;;1.75;;
42134;SDS011;28312;43.460;11.810;2022-10-13T01:33:42;2.08;;;1.20;;
42134;SDS011;28312;43.460;11.810;2022-10-13T01:42:11;2.83;;;1.95;;
42134;SDS011;28312;43.460;11.810;2022-10-13T01:46:29;2.50;;;1.65;;
42134;SDS011;28312;43.460;11.810;2022-10-13T01:50:35;2.80;;;1.42;;
42134;SDS011;28312;43.460;11.810;2022-10-13T01:54:40;3.28;;;1.83;;
42134;SDS011;28312;43.460;11.810;2022-10-13T01:58:43;2.63;;;1.73;;
42134;SDS011;28312;43.460;11.810;2022-10-13T02:07:22;3.92;;;2.15;;
42134;SDS011;28312;43.460;11.810;2022-10-13T02:11:57;7.97;;;2.50;;
42134;SDS011;28312;43.460;11.810;2022-10-13T02:16:08;2.33;;;1.70;;
42134;SDS011;28312;43.460;11.810;2022-10-13T02:20:13;2.80;;;1.70;;
42134;SDS011;28312;43.460;11.810;2022-10-13T02:24:18;4.17;;;2.00;;
42134;SDS011;28312;43.460;11.810;2022-10-13T02:28:23;3.15;;;2.08;;
42134;SDS011;28312;43.460;11.810;2022-10-13T02:32:27;3.40;;;2.25;;
42134;SDS011;28312;43.460;11.810;2022-10-13T02:36:31;3.35;;;2.20;;
42134;SDS011;28312;43.460;11.810;2022-10-13T02:40:35;2.58;;;1.70;;
42134;SDS011;28312;43.460;11.810;2022-10-13T02:44:40;3.60;;;1.92;;
42134;SDS011;28312;43.460;11.810;2022-10-13T02:48:43;2.75;;;1.92;;
42134;SDS011;28312;43.460;11.810;2022-10-13T02:52:47;4.03;;;2.30;;
42134;SDS011;28312;43.460;11.810;2022-10-13T02:56:51;2.20;;;1.60;;
42134;SDS011;28312;43.460;11.810;2022-10-13T03:01:03;2.60;;;1.10;;
42134;SDS011;28312;43.460;11.810;2022-10-13T03:05:11;2.58;;;1.70;;
42134;SDS011;28312;43.460;11.810;2022-10-13T03:09:15;2.45;;;1.35;;
42134;SDS011;28312;43.460;11.810;2022-10-13T03:13:19;3.63;;;2.15;;
42134;SDS011;28312;43.460;11.810;2022-10-13T03:17:22;2.75;;;1.98;;
42134;SDS011;28312;43.460;11.810;2022-10-13T03:21:26;3.35;;;2.30;;
42134;SDS011;28312;43.460;11.810;2022-10-13T03:25:29;3.00;;;1.90;;
42134;SDS011;28312;43.460;11.810;2022-10-13T03:29:34;2.72;;;1.58;;
42134;SDS011;28312;43.460;11.810;2022-10-13T03:33:38;3.15;;;1.90;;
42134;SDS011;28312;43.460;11.810;2022-10-13T03:37:42;3.10;;;1.98;;
42134;SDS011;28312;43.460;11.810;2022-10-13T03:41:46;4.15;;;2.08;;
42134;SDS011;28312;43.460;11.810;2022-10-13T03:45:56;3.03;;;2.10;;
42134;SDS011;28312;43.460;11.810;2022-10-13T03:50:02;2.97;;;1.60;;
42134;SDS011;28312;43.460;11.810;2022-10-13T03:54:09;2.50;;;1.50;;
42134;SDS011;28312;43.460;11.810;2022-10-13T03:58:14;2.80;;;1.60;;
42134;SDS011;28312;43.460;11.810;2022-10-13T04:02:19;3.65;;;2.17;;
42134;SDS011;28312;43.460;11.810;2022-10-13T04:06:24;3.38;;;2.10;;
42134;SDS011;28312;43.460;11.810;2022-10-13T04:10:28;2.78;;;1.77;;
42134;SDS011;28312;43.460;11.810;2022-10-13T04:14:32;2.67;;;1.70;;
42134;SDS011;28312;43.460;11.810;2022-10-13T04:18:42;3.53;;;1.90;;
42134;SDS011;28312;43.460;11.810;2022-10-13T04:22:47;3.28;;;1.60;;
42134;SDS011;28312;43.460;11.810;2022-10-13T04:26:51;2.75;;;1.60;;
42134;SDS011;28312;43.460;11.810;2022-10-13T04:30:55;3.88;;;1.92;;
42134;SDS011;28312;43.460;11.810;2022-10-13T04:35:02;4.25;;;2.08;;
42134;SDS011;28312;43.460;11.810;2022-10-13T04:39:06;3.88;;;2.13;;
42134;SDS011;28312;43.460;11.810;2022-10-13T04:43:10;3.88;;;1.70;;
42134;SDS011;28312;43.460;11.810;2022-10-13T04:47:14;4.38;;;1.70;;
42134;SDS011;28312;43.460;11.810;2022-10-13T04:51:21;1.77;;;1.15;;
42134;SDS011;28312;43.460;11.810;2022-10-13T04:55:26;3.65;;;1.85;;
42134;SDS011;28312;43.460;11.810;2022-10-13T04:59:30;3.63;;;2.13;;
42134;SDS011;28312;43.460;11.810;2022-10-13T05:03:33;4.65;;;2.38;;
42134;SDS011;28312;43.460;11.810;2022-10-13T05:07:37;3.00;;;1.63;;
42134;SDS011;28312;43.460;11.810;2022-10-13T05:11:41;4.63;;;3.05;;
42134;SDS011;28312;43.460;11.810;2022-10-13T05:15:44;5.22;;;1.90;;
42134;SDS011;28312;43.460;11.810;2022-10-13T05:19:49;3.10;;;1.67;;
42134;SDS011;28312;43.460;11.810;2022-10-13T05:23:52;5.80;;;2.20;;
42134;SDS011;28312;43.460;11.810;2022-10-13T05:27:57;2.67;;;1.40;;
42134;SDS011;28312;43.460;11.810;2022-10-13T05:32:01;4.70;;;2.40;;
42134;SDS011;28312;43.460;11.810;2022-10-13T05:36:08;2.90;;;1.60;;
42134;SDS011;28312;43.460;11.810;2022-10-13T05:40:13;5.75;;;1.83;;
42134;SDS011;28312;43.460;11.810;2022-10-13T05:44:17;3.60;;;1.58;;
42134;SDS011;28312;43.460;11.810;2022-10-13T05:48:29;3.67;;;1.48;;
42134;SDS011;28312;43.460;11.810;2022-10-13T05:52:33;5.15;;;1.48;;
42134;SDS011;28312;43.460;11.810;2022-10-13T05:56:44;4.53;;;1.20;;
42134;SDS011;28312;43.460;11.810;2022-10-13T06:01:07;2.43;;;1.40;;
42134;SDS011;28312;43.460;11.810;2022-10-13T06:05:15;5.03;;;2.33;;
42134;SDS011;28312;43.460;11.810;2022-10-13T06:09:26;2.75;;;1.50;;
42134;SDS011;28312;43.460;11.810;2022-10-13T06:13:36;4.57;;;2.05;;
42134;SDS011;28312;43.460;11.810;2022-10-13T06:17:40;5.25;;;1.77;;
42134;SDS011;28312;43.460;11.810;2022-10-13T06:21:44;3.17;;;1.45;;
42134;SDS011;28312;43.460;11.810;2022-10-13T06:25:51;6.70;;;2.60;;
42134;SDS011;28312;43.460;11.810;2022-10-13T06:29:55;5.13;;;2.33;;
42134;SDS011;28312;43.460;11.810;2022-10-13T06:34:00;6.25;;;2.75;;
42134;SDS011;28312;43.460;11.810;2022-10-13T06:38:04;5.07;;;2.22;;
42134;SDS011;28312;43.460;11.810;2022-10-13T06:42:10;4.38;;;1.30;;
42134;SDS011;28312;43.460;11.810;2022-10-13T06:46:16;3.15;;;1.83;;
42134;SDS011;28312;43.460;11.810;2022-10-13T06:50:20;2.20;;;1.48;;
42134;SDS011;28312;43.460;11.810;2022-10-13T06:54:24;4.15;;;2.03;;
42134;SDS011;28312;43.460;11.810;2022-10-13T06:58:28;3.28;;;1.48;;
42134;SDS011;28312;43.460;11.810;2022-10-13T07:02:32;3.60;;;1.60;;
42134;SDS011;28312;43.460;11.810;2022-10-13T07:06:36;4.22;;;1.60;;
42134;SDS011;28312;43.460;11.810;2022-10-13T07:10:44;3.58;;;1.80;;
42134;SDS011;28312;43.460;11.810;2022-10-13T07:14:48;3.05;;;1.63;;
42134;SDS011;28312;43.460;11.810;2022-10-13T07:18:51;4.88;;;2.90;;
42134;SDS011;28312;43.460;11.810;2022-10-13T07:22:55;2.40;;;1.75;;
42134;SDS011;28312;43.460;11.810;2022-10-13T07:26:59;2.78;;;1.77;;
42134;SDS011;28312;43.460;11.810;2022-10-13T07:31:10;3.25;;;2.05;;
42134;SDS011;28312;43.460;11.810;2022-10-13T07:35:16;2.88;;;1.52;;
42134;SDS011;28312;43.460;11.810;2022-10-13T07:39:20;3.20;;;1.73;;
42134;SDS011;28312;43.460;11.810;2022-10-13T07:43:24;8.07;;;3.92;;
42134;SDS011;28312;43.460;11.810;2022-10-13T07:47:29;3.65;;;2.35;;
42134;SDS011;28312;43.460;11.810;2022-10-13T07:51:33;3.97;;;2.65;;
42134;SDS011;28312;43.460;11.810;2022-10-13T07:55:36;3.58;;;2.38;;
42134;SDS011;28312;43.460;11.810;2022-10-13T07:59:40;5.68;;;3.65;;
42134;SDS011;28312;43.460;11.810;2022-10-13T08:03:47;5.68;;;3.10;;
42134;SDS011;28312;43.460;11.810;2022-10-13T08:07:55;6.20;;;4.22;;
42134;SDS011;28312;43.460;11.810;2022-10-13T08:12:00;4.15;;;3.03;;
42134;SDS011;28312;43.460;11.810;2022-10-13T08:16:03;4.30;;;2.40;;
42134;SDS011;28312;43.460;11.810;2022-10-13T08:20:08;4.93;;;2.78;;
42134;SDS011;28312;43.460;11.810;2022-10-13T08:24:13;5.38;;;3.38;;
42134;SDS011;28312;43.460;11.810;2022-10-13T08:28:21;4.93;;;3.20;;
42134;SDS011;28312;43.460;11.810;2022-10-13T08:32:27;4.60;;;2.70;;
42134;SDS011;28312;43.460;11.810;2022-10-13T08:36:33;5.20;;;2.97;;
42134;SDS011;28312;43.460;11.810;2022-10-13T08:40:37;5.60;;;3.58;;
42134;SDS011;28312;43.460;11.810;2022-10-13T08:44:43;4.17;;;2.50;;
42134;SDS011;28312;43.460;11.810;2022-10-13T08:49:15;5.22;;;3.15;;
42134;SDS011;28312;43.460;11.810;2022-10-13T08:53:35;3.58;;;2.45;;
42134;SDS011;28312;43.460;11.810;2022-10-13T08:57:41;4.43;;;3.22;;
42134;SDS011;28312;43.460;11.810;2022-10-13T09:01:47;7.05;;;3.58;;
42134;SDS011;28312;43.460;11.810;2022-10-13T09:10:11;8.60;;;3.85;;
42134;SDS011;28312;43.460;11.810;2022-10-13T09:18:29;4.03;;;2.95;;
42134;SDS011;28312;43.460;11.810;2022-10-13T09:22:37;4.70;;;3.53;;
42134;SDS011;28312;43.460;11.810;2022-10-13T09:26:42;5.47;;;3.78;;
42134;SDS011;28312;43.460;11.810;2022-10-13T09:30:46;6.85;;;3.60;;
42134;SDS011;28312;43.460;11.810;2022-10-13T09:35:19;6.72;;;4.03;;
42134;SDS011;28312;43.460;11.810;2022-10-13T09:39:25;4.30;;;3.53;;
42134;SDS011;28312;43.460;11.810;2022-10-13T09:43:33;9.37;;;4.90;;
42134;SDS011;28312;43.460;11.810;2022-10-13T09:47:50;7.00;;;4.82;;
42134;SDS011;28312;43.460;11.810;2022-10-13T09:56:22;5.57;;;3.30;;
42134;SDS011;28312;43.460;11.810;2022-10-13T10:00:32;6.60;;;3.50;;
42134;SDS011;28312;43.460;11.810;2022-10-13T10:04:37;6.13;;;4.10;;
42134;SDS011;28312;43.460;11.810;2022-10-13T10:13:09;5.15;;;4.18;;
42134;SDS011;28312;43.460;11.810;2022-10-13T10:17:29;8.35;;;4.10;;
42134;SDS011;28312;43.460;11.810;2022-10-13T10:22:04;5.00;;;4.28;;
42134;SDS011;28312;43.460;11.810;2022-10-13T10:26:22;6.90;;;4.15;;
42134;SDS011;28312;43.460;11.810;2022-10-13T10:30:34;5.78;;;4.15;;
42134;SDS011;28312;43.460;11.810;2022-10-13T10:34:51;5.35;;;3.78;;
42134;SDS011;28312;43.460;11.810;2022-10-13T10:47:45;5.28;;;3.40;;
42134;SDS011;28312;43.460;11.810;2022-10-13T10:51:52;6.10;;;3.70;;
42134;SDS011;28312;43.460;11.810;2022-10-13T10:56:44;4.78;;;3.95;;
42134;SDS011;28312;43.460;11.810;2022-10-13T11:00:33;8.13;;;3.33;;
42134;SDS011;28312;43.460;11.810;2022-10-13T11:05:03;3.42;;;2.88;;
42134;SDS011;28312;43.460;11.810;2022-10-13T11:09:08;4.82;;;3.25;;
42134;SDS011;28312;43.460;11.810;2022-10-13T11:13:15;3.33;;;2.80;;
42134;SDS011;28312;43.460;11.810;2022-10-13T11:17:26;3.97;;;2.67;;
42134;SDS011;28312;43.460;11.810;2022-10-13T11:26:17;6.38;;;2.55;;
42134;SDS011;28312;43.460;11.810;2022-10-13T11:30:43;5.53;;;3.03;;
42134;SDS011;28312;43.460;11.810;2022-10-13T11:35:16;6.63;;;4.25;;
42134;SDS011;28312;43.460;11.810;2022-10-13T11:52:39;6.20;;;3.13;;
42134;SDS011;28312;43.460;11.810;2022-10-13T11:56:56;4.85;;;3.28;;
42134;SDS011;28312;43.460;11.810;2022-10-13T12:05:20;3.83;;;2.90;;
42134;SDS011;28312;43.460;11.810;2022-10-13T12:09:32;3.72;;;2.63;;
42134;SDS011;28312;43.460;11.810;2022-10-13T12:13:41;3.67;;;2.80;;
42134;SDS011;28312;43.460;11.810;2022-10-13T12:17:50;4.28;;;3.60;;
42134;SDS011;28312;43.460;11.810;2022-10-13T12:21:55;2.83;;;2.00;;
42134;SDS011;28312;43.460;11.810;2022-10-13T12:26:00;4.68;;;3.35;;
42134;SDS011;28312;43.460;11.810;2022-10-13T12:30:18;3.80;;;2.47;;
42134;SDS011;28312;43.460;11.810;2022-10-13T12:34:27;3.05;;;1.98;;
42134;SDS011;28312;43.460;11.810;2022-10-13T12:38:38;5.00;;;3.53;;
42134;SDS011;28312;43.460;11.810;2022-10-13T12:42:47;4.47;;;2.90;;
42134;SDS011;28312;43.460;11.810;2022-10-13T12:46:52;3.85;;;2.88;;
42134;SDS011;28312;43.460;11.810;2022-10-13T12:55:25;3.73;;;3.17;;
42134;SDS011;28312;43.460;11.810;2022-10-13T12:59:29;4.50;;;3.10;;
42134;SDS011;28312;43.460;11.810;2022-10-13T13:03:33;5.15;;;3.38;;
42134;SDS011;28312;43.460;11.810;2022-10-13T13:07:40;5.30;;;4.03;;
42134;SDS011;28312;43.460;11.810;2022-10-13T13:16:14;4.13;;;2.67;;
42134;SDS011;28312;43.460;11.810;2022-10-13T13:20:31;3.20;;;2.20;;
42134;SDS011;28312;43.460;11.810;2022-10-13T13:24:37;3.20;;;2.40;;
42134;SDS011;28312;43.460;11.810;2022-10-13T13:28:45;3.22;;;1.85;;
42134;SDS011;28312;43.460;11.810;2022-10-13T13:32:51;4.78;;;2.75;;
42134;SDS011;28312;43.460;11.810;2022-10-13T13:36:55;3.53;;;2.45;;
42134;SDS011;28312;43.460;11.810;2022-10-13T13:40:58;3.63;;;2.40;;
42134;SDS011;28312;43.460;11.810;2022-10-13T13:45:05;4.53;;;2.95;;
42134;SDS011;28312;43.460;11.810;2022-10-13T13:49:13;4.55;;;2.47;;
42134;SDS011;28312;43.460;11.810;2022-10-13T13:53:16;5.82;;;3.15;;
42134;SDS011;28312;43.460;11.810;2022-10-13T13:57:20;5.20;;;2.95;;
42134;SDS011;28312;43.460;11.810;2022-10-13T14:01:24;5.95;;;3.05;;
42134;SDS011;28312;43.460;11.810;2022-10-13T14:05:28;5.97;;;2.63;;
42134;SDS011;28312;43.460;11.810;2022-10-13T14:09:32;3.85;;;2.85;;
42134;SDS011;28312;43.460;11.810;2022-10-13T14:13:35;3.45;;;2.50;;
42134;SDS011;28312;43.460;11.810;2022-10-13T14:17:39;3.38;;;2.22;;
42134;SDS011;28312;43.460;11.810;2022-10-13T14:21:45;3.63;;;2.72;;
42134;SDS011;28312;43.460;11.810;2022-10-13T14:25:52;3.92;;;2.75;;
42134;SDS011;28312;43.460;11.810;2022-10-13T14:29:56;3.35;;;2.15;;
42134;SDS011;28312;43.460;11.810;2022-10-13T14:34:00;4.43;;;2.70;;
42134;SDS011;28312;43.460;11.810;2022-10-13T14:38:07;4.68;;;3.25;;
42134;SDS011;28312;43.460;11.810;2022-10-13T14:42:11;4.55;;;2.13;;
42134;SDS011;28312;43.460;11.810;2022-10-13T14:46:14;3.45;;;2.38;;
42134;SDS011;28312;43.460;11.810;2022-10-13T14:50:18;5.82;;;2.67;;
42134;SDS011;28312;43.460;11.810;2022-10-13T14:54:26;5.57;;;2.90;;
42134;SDS011;28312;43.460;11.810;2022-10-13T14:58:30;5.68;;;2.40;;
42134;SDS011;28312;43.460;11.810;2022-10-13T15:02:33;4.53;;;3.03;;
42134;SDS011;28312;43.460;11.810;2022-10-13T15:06:37;3.78;;;3.00;;
42134;SDS011;28312;43.460;11.810;2022-10-13T15:10:42;7.22;;;3.53;;
42134;SDS011;28312;43.460;11.810;2022-10-13T15:14:47;4.25;;;2.65;;
42134;SDS011;28312;43.460;11.810;2022-10-13T15:18:50;4.40;;;2.15;;
42134;SDS011;28312;43.460;11.810;2022-10-13T15:22:54;4.60;;;1.98;;
42134;SDS011;28312;43.460;11.810;2022-10-13T15:26:58;3.17;;;1.55;;
42134;SDS011;28312;43.460;11.810;2022-10-13T15:31:04;8.83;;;2.90;;
42134;SDS011;28312;43.460;11.810;2022-10-13T15:35:09;3.42;;;1.58;;
42134;SDS011;28312;43.460;11.810;2022-10-13T15:39:14;3.00;;;1.52;;
42134;SDS011;28312;43.460;11.810;2022-10-13T15:43:18;4.82;;;3.28;;
42134;SDS011;28312;43.460;11.810;2022-10-13T15:47:21;2.35;;;1.52;;
42134;SDS011;28312;43.460;11.810;2022-10-13T15:51:25;4.03;;;2.22;;
42134;SDS011;28312;43.460;11.810;2022-10-13T15:55:31;3.53;;;1.80;;
42134;SDS011;28312;43.460;11.810;2022-10-13T15:59:36;2.78;;;1.58;;
42134;SDS011;28312;43.460;11.810;2022-10-13T16:03:40;3.28;;;1.80;;
42134;SDS011;28312;43.460;11.810;2022-10-13T16:07:44;2.17;;;1.25;;
42134;SDS011;28312;43.460;11.810;2022-10-13T16:11:48;3.38;;;1.25;;
42134;SDS011;28312;43.460;11.810;2022-10-13T16:15:58;3.13;;;1.45;;
42134;SDS011;28312;43.460;11.810;2022-10-13T16:20:03;3.40;;;1.40;;
42134;SDS011;28312;43.460;11.810;2022-10-13T16:24:09;1.80;;;0.97;;
42134;SDS011;28312;43.460;11.810;2022-10-13T16:28:12;3.17;;;2.05;;
42134;SDS011;28312;43.460;11.810;2022-10-13T16:32:16;4.50;;;1.58;;
42134;SDS011;28312;43.460;11.810;2022-10-13T16:36:20;2.00;;;1.15;;
42134;SDS011;28312;43.460;11.810;2022-10-13T16:40:25;3.13;;;1.75;;
42134;SDS011;28312;43.460;11.810;2022-10-13T16:44:30;4.22;;;1.48;;
42134;SDS011;28312;43.460;11.810;2022-10-13T16:48:34;2.15;;;1.13;;
42134;SDS011;28312;43.460;11.810;2022-10-13T16:52:38;1.70;;;0.98;;
42134;SDS011;28312;43.460;11.810;2022-10-13T16:56:42;2.00;;;1.25;;
42134;SDS011;28312;43.460;11.810;2022-10-13T17:00:45;2.30;;;1.75;;
42134;SDS011;28312;43.460;11.810;2022-10-13T17:04:49;5.07;;;2.42;;
42134;SDS011;28312;43.460;11.810;2022-10-13T17:08:53;2.45;;;1.30;;
42134;SDS011;28312;43.460;11.810;2022-10-13T17:13:02;2.83;;;1.25;;
42134;SDS011;28312;43.460;11.810;2022-10-13T17:17:06;3.75;;;1.80;;
42134;SDS011;28312;43.460;11.810;2022-10-13T17:21:10;2.65;;;1.55;;
42134;SDS011;28312;43.460;11.810;2022-10-13T17:25:16;2.55;;;1.50;;
42134;SDS011;28312;43.460;11.810;2022-10-13T17:29:19;3.90;;;1.30;;
42134;SDS011;28312;43.460;11.810;2022-10-13T17:33:27;2.17;;;1.30;;
42134;SDS011;28312;43.460;11.810;2022-10-13T17:37:32;2.58;;;1.08;;
42134;SDS011;28312;43.460;11.810;2022-10-13T17:41:36;2.58;;;1.60;;
42134;SDS011;28312;43.460;11.810;2022-10-13T17:45:40;2.70;;;1.88;;
42134;SDS011;28312;43.460;11.810;2022-10-13T17:49:43;3.03;;;1.98;;
42134;SDS011;28312;43.460;11.810;2022-10-13T17:53:50;2.15;;;1.27;;
42134;SDS011;28312;43.460;11.810;2022-10-13T17:57:54;2.80;;;1.48;;
42134;SDS011;28312;43.460;11.810;2022-10-13T18:01:58;2.17;;;0.90;;
42134;SDS011;28312;43.460;11.810;2022-10-13T18:06:02;2.15;;;1.20;;
42134;SDS011;28312;43.460;11.810;2022-10-13T18:10:10;2.17;;;1.33;;
42134;SDS011;28312;43.460;11.810;2022-10-13T18:14:15;3.50;;;1.88;;
42134;SDS011;28312;43.460;11.810;2022-10-13T18:18:22;3.55;;;1.77;;
42134;SDS011;28312;43.460;11.810;2022-10-13T18:22:26;1.90;;;1.10;;
42134;SDS011;28312;43.460;11.810;2022-10-13T18:26:31;2.47;;;1.30;;
42134;SDS011;28312;43.460;11.810;2022-10-13T18:30:38;3.30;;;1.73;;
42134;SDS011;28312;43.460;11.810;2022-10-13T18:34:44;1.98;;;1.40;;
42134;SDS011;28312;43.460;11.810;2022-10-13T18:38:48;3.40;;;1.95;;
42134;SDS011;28312;43.460;11.810;2022-10-13T18:42:52;4.38;;;2.05;;
42134;SDS011;28312;43.460;11.810;2022-10-13T18:46:56;4.47;;;2.08;;
42134;SDS011;28312;43.460;11.810;2022-10-13T18:51:05;2.42;;;1.48;;
42134;SDS011;28312;43.460;11.810;2022-10-13T18:55:14;3.20;;;1.85;;
42134;SDS011;28312;43.460;11.810;2022-10-13T18:59:17;3.35;;;1.90;;
42134;SDS011;28312;43.460;11.810;2022-10-13T19:03:21;3.70;;;1.80;;
42134;SDS011;28312;43.460;11.810;2022-10-13T19:07:25;7.15;;;1.77;;
42134;SDS011;28312;43.460;11.810;2022-10-13T19:11:32;2.58;;;1.30;;
42134;SDS011;28312;43.460;11.810;2022-10-13T19:15:36;2.25;;;1.45;;
42134;SDS011;28312;43.460;11.810;2022-10-13T19:19:41;3.58;;;2.08;;
42134;SDS011;28312;43.460;11.810;2022-10-13T19:23:45;3.38;;;1.70;;
42134;SDS011;28312;43.460;11.810;2022-10-13T19:27:59;3.08;;;1.40;;
42134;SDS011;28312;43.460;11.810;2022-10-13T19:32:02;4.68;;;2.53;;
42134;SDS011;28312;43.460;11.810;2022-10-13T19:36:06;2.65;;;1.73;;
42134;SDS011;28312;43.460;11.810;2022-10-13T19:40:11;3.53;;;2.30;;
42134;SDS011;28312;43.460;11.810;2022-10-13T19:44:15;3.00;;;1.73;;
42134;SDS011;28312;43.460;11.810;2022-10-13T19:48:20;3.95;;;1.95;;
42134;SDS011;28312;43.460;11.810;2022-10-13T19:52:25;2.08;;;1.30;;
42134;SDS011;28312;43.460;11.810;2022-10-13T19:56:29;2.45;;;1.58;;
42134;SDS011;28312;43.460;11.810;2022-10-13T20:00:35;4.10;;;2.43;;
42134;SDS011;28312;43.460;11.810;2022-10-13T20:04:39;2.60;;;1.42;;
42134;SDS011;28312;43.460;11.810;2022-10-13T20:08:42;3.63;;;1.95;;
42134;SDS011;28312;43.460;11.810;2022-10-13T20:12:47;5.00;;;2.72;;
42134;SDS011;28312;43.460;11.810;2022-10-13T20:16:51;5.03;;;2.20;;
42134;SDS011;28312;43.460;11.810;2022-10-13T20:20:55;2.92;;;1.60;;
42134;SDS011;28312;43.460;11.810;2022-10-13T20:24:59;2.58;;;1.70;;
42134;SDS011;28312;43.460;11.810;2022-10-13T20:29:04;3.40;;;1.75;;
42134;SDS011;28312;43.460;11.810;2022-10-13T20:33:08;2.83;;;1.63;;
42134;SDS011;28312;43.460;11.810;2022-10-13T20:37:12;4.00;;;2.05;;
42134;SDS011;28312;43.460;11.810;2022-10-13T20:41:18;2.03;;;1.25;;
42134;SDS011;28312;43.460;11.810;2022-10-13T20:45:30;3.58;;;1.80;;
42134;SDS011;28312;43.460;11.810;2022-10-13T20:49:34;4.32;;;2.17;;
42134;SDS011;28312;43.460;11.810;2022-10-13T20:53:39;2.78;;;1.45;;
42134;SDS011;28312;43.460;11.810;2022-10-13T20:57:48;4.18;;;2.00;;
42134;SDS011;28312;43.460;11.810;2022-10-13T21:01:54;3.97;;;1.60;;
42134;SDS011;28312;43.460;11.810;2022-10-13T21:05:59;3.03;;;1.83;;
42134;SDS011;28312;43.460;11.810;2022-10-13T21:10:05;4.53;;;2.17;;
42134;SDS011;28312;43.460;11.810;2022-10-13T21:14:10;5.93;;;2.20;;
42134;SDS011;28312;43.460;11.810;2022-10-13T21:18:14;4.57;;;2.13;;
42134;SDS011;28312;43.460;11.810;2022-10-13T21:22:18;4.45;;;2.00;;
42134;SDS011;28312;43.460;11.810;2022-10-13T21:26:24;3.40;;;1.83;;
42134;SDS011;28312;43.460;11.810;2022-10-13T21:30:31;3.33;;;1.90;;
42134;SDS011;28312;43.460;11.810;2022-10-13T21:34:36;3.05;;;2.00;;
42134;SDS011;28312;43.460;11.810;2022-10-13T21:38:40;7.68;;;2.50;;
42134;SDS011;28312;43.460;11.810;2022-10-13T21:42:45;4.03;;;2.13;;
42134;SDS011;28312;43.460;11.810;2022-10-13T21:46:49;2.13;;;1.40;;
42134;SDS011;28312;43.460;11.810;2022-10-13T21:50:53;4.00;;;2.40;;
42134;SDS011;28312;43.460;11.810;2022-10-13T21:54:58;3.17;;;1.85;;
42134;SDS011;28312;43.460;11.810;2022-10-13T21:59:03;7.65;;;1.80;;
42134;SDS011;28312;43.460;11.810;2022-10-13T22:03:08;4.00;;;1.70;;
42134;SDS011;28312;43.460;11.810;2022-10-13T22:07:11;3.63;;;1.80;;
42134;SDS011;28312;43.460;11.810;2022-10-13T22:11:15;4.10;;;2.35;;
42134;SDS011;28312;43.460;11.810;2022-10-13T22:15:20;4.20;;;2.65;;
42134;SDS011;28312;43.460;11.810;2022-10-13T22:19:24;7.95;;;2.58;;
42134;SDS011;28312;43.460;11.810;2022-10-13T22:23:27;5.93;;;2.65;;
42134;SDS011;28312;43.460;11.810;2022-10-13T22:27:31;3.40;;;1.80;;
42134;SDS011;28312;43.460;11.810;2022-10-13T22:31:35;3.78;;;2.20;;
42134;SDS011;28312;43.460;11.810;2022-10-13T22:35:44;3.42;;;2.10;;
42134;SDS011;28312;43.460;11.810;2022-10-13T22:39:50;4.57;;;2.35;;
42134;SDS011;28312;43.460;11.810;2022-10-13T22:43:55;3.60;;;1.65;;
42134;SDS011;28312;43.460;11.810;2022-10-13T22:48:00;3.60;;;1.85;;
42134;SDS011;28312;43.460;11.810;2022-10-13T22:52:04;3.80;;;1.92;;
42134;SDS011;28312;43.460;11.810;2022-10-13T22:56:08;4.10;;;1.58;;
42134;SDS011;28312;43.460;11.810;2022-10-13T23:00:14;3.13;;;1.75;;
42134;SDS011;28312;43.460;11.810;2022-10-13T23:04:20;2.60;;;1.33;;
42134;SDS011;28312;43.460;11.810;2022-10-13T23:08:24;5.20;;;2.80;;
42134;SDS011;28312;43.460;11.810;2022-10-13T23:12:27;4.07;;;2.03;;
42134;SDS011;28312;43.460;11.810;2022-10-13T23:16:31;4.35;;;2.20;;
42134;SDS011;28312;43.460;11.810;2022-10-13T23:20:38;3.35;;;1.60;;
42134;SDS011;28312;43.460;11.810;2022-10-13T23:24:42;4.32;;;2.33;;
42134;SDS011;28312;43.460;11.810;2022-10-13T23:28:45;2.03;;;1.30;;
42134;SDS011;28312;43.460;11.810;2022-10-13T23:32:50;5.18;;;3.15;;
42134;SDS011;28312;43.460;11.810;2022-10-13T23:36:54;3.92;;;1.48;;
42134;SDS011;28312;43.460;11.810;2022-10-13T23:41:01;2.65;;;1.60;;
42134;SDS011;28312;43.460;11.810;2022-10-13T23:45:12;2.95;;;1.67;;
42134;SDS011;28312;43.460;11.810;2022-10-13T23:49:16;4.05;;;2.92;;
42134;SDS011;28312;43.460;11.810;2022-10-13T23:53:19;5.55;;;1.83;;
42134;SDS011;28312;43.460;11.810;2022-10-13T23:57:23;3.97;;;2.30;;
